Time;durP1;ratioP1;P1;durP2;ratioP2;P2;SDS_P1;SDS_P2;PMS_P1;PMS_P2;Temp;Humidity;BMP_temperature;BMP_pressure;BME280_temperature;BME280_humidity;BME280_pressure;Samples;Min_cycle;Max_cycle;Signal;HPM_P1;HPM_P2
2022/10/16 08:50:29;;;;;;;25.65;8.30;;;;;;;18.01;61.54;101454.25;5012119;27;20556;-39
2022/10/16 08:52:56;;;;;;;25.23;10.85;;;;;;;18.22;61.21;101463.03;5028764;28;20057;-37
2022/10/16 08:55:32;;;;;;;22.60;9.80;;;;;;;18.45;60.94;101470.78;5029226;28;20053;-38
2022/10/16 08:57:59;;;;;;;24.10;9.38;;;;;;;18.64;60.07;101473.47;5029305;28;20063;-38
2022/10/16 09:00:27;;;;;;;22.13;9.20;;;;;;;18.80;59.52;101474.75;5031889;28;20060;-41
2022/10/16 09:03:39;;;;;;;21.42;9.50;;;;;;;18.95;59.06;101474.19;5029193;28;20052;-43
2022/10/16 09:06:43;;;;;;;19.75;9.30;;;;;;;19.10;58.34;101482.63;5028862;28;20056;-44
2022/10/16 09:09:15;;;;;;;17.33;9.37;;;;;;;19.21;58.39;101487.81;5009253;28;20056;-43
2022/10/16 09:12:07;;;;;;;32.10;9.32;;;;;;;19.31;58.13;101489.66;5030017;28;20049;-43
2022/10/16 09:14:54;;;;;;;25.17;11.20;;;;;;;19.39;58.09;101492.47;5029419;28;20065;-43
2022/10/16 09:17:35;;;;;;;20.30;9.98;;;;;;;19.46;58.23;101488.19;5030329;28;20053;-45
2022/10/16 09:20:29;;;;;;;19.77;9.20;;;;;;;19.50;57.71;101486.91;5034662;28;20060;-43
2022/10/16 09:23:04;;;;;;;18.67;9.77;;;;;;;19.56;57.44;101488.97;5031079;28;20053;-44
2022/10/16 09:25:32;;;;;;;23.90;9.50;;;;;;;19.63;57.59;101498.19;5027348;28;20057;-42
2022/10/16 09:27:59;;;;;;;24.30;9.82;;;;;;;19.67;57.72;101506.81;4991563;28;20079;-47
2022/10/16 09:30:29;;;;;;;27.58;11.18;;;;;;;19.71;57.40;101511.75;5029786;28;20079;-47
2022/10/16 09:32:57;;;;;;;21.05;9.45;;;;;;;19.77;56.74;101512.97;5030853;28;20096;-54
2022/10/16 09:35:52;;;;;;;30.80;9.02;;;;;;;19.84;57.16;101513.25;5031713;28;20056;-48
2022/10/16 09:38:28;;;;;;;20.08;10.50;;;;;;;19.92;56.90;101519.56;5028939;28;20067;-45
2022/10/16 09:40:57;;;;;;;19.77;9.32;;;;;;;19.97;56.69;101513.72;5029495;28;20049;-43
2022/10/16 09:43:40;;;;;;;20.25;9.43;;;;;;;20.01;56.10;101514.28;5028820;28;20049;-44
2022/10/16 09:46:28;;;;;;;22.85;9.73;;;;;;;20.07;56.53;101506.47;5027174;28;20951;-44
2022/10/16 09:49:00;;;;;;;18.77;9.25;;;;;;;20.14;55.68;101506.69;5001230;28;20040;-45
2022/10/16 09:51:36;;;;;;;17.90;9.00;;;;;;;20.19;56.15;101515.19;5035563;28;20068;-39
2022/10/16 09:54:08;;;;;;;21.30;9.57;;;;;;;20.24;55.45;101517.41;5027842;28;20132;-39
2022/10/16 09:56:38;;;;;;;20.63;9.07;;;;;;;20.28;55.42;101522.34;5029170;28;20052;-38
2022/10/16 09:59:14;;;;;;;17.40;8.75;;;;;;;20.33;55.21;101528.09;5031014;28;20056;-39
2022/10/16 10:01:45;;;;;;;17.23;9.52;;;;;;;20.41;55.62;101516.56;5017427;28;20045;-39
2022/10/16 10:04:12;;;;;;;22.52;9.20;;;;;;;20.47;55.42;101532.13;5016304;28;20341;-39
2022/10/16 10:07:04;;;;;;;24.20;9.18;;;;;;;20.49;55.04;101537.38;5011993;28;20060;-41
2022/10/16 10:09:39;;;;;;;14.68;8.73;;;;;;;20.54;54.51;101530.53;4971912;28;20056;-58
2022/10/16 10:12:16;;;;;;;14.60;8.10;;;;;;;20.57;54.43;101538.31;5013417;28;20077;-57
2022/10/16 10:14:50;;;;;;;14.13;7.15;;;;;;;20.58;54.86;101542.72;5012993;28;20080;-56
2022/10/16 10:17:22;;;;;;;16.42;8.23;;;;;;;20.57;54.88;101527.53;5017423;28;20053;-55
2022/10/16 10:19:53;;;;;;;16.38;8.02;;;;;;;20.58;54.86;101537.34;5014864;28;20440;-57
2022/10/16 10:22:38;;;;;;;15.88;7.38;;;;;;;20.60;55.12;101539.84;5011968;28;20050;-54
2022/10/16 10:25:07;;;;;;;18.27;7.95;;;;;;;20.64;54.44;101538.53;5015756;28;20069;-62
2022/10/16 10:28:15;;;;;;;11.88;6.45;;;;;;;20.65;54.47;101542.94;4992507;28;20049;-62
2022/10/16 10:31:16;;;;;;;15.00;7.25;;;;;;;20.69;54.51;101550.53;5016854;28;20049;-62
2022/10/16 10:33:50;;;;;;;13.85;6.65;;;;;;;20.72;54.66;101551.25;5015822;28;20360;-52
2022/10/16 10:36:37;;;;;;;14.02;7.15;;;;;;;20.74;54.80;101560.00;5013870;28;20146;-49
2022/10/16 10:39:17;;;;;;;19.75;7.45;;;;;;;20.76;54.90;101563.41;5012926;28;20053;-56
2022/10/16 10:42:19;;;;;;;16.40;7.63;;;;;;;20.76;54.26;101558.03;5021193;28;20267;-51
2022/10/16 10:45:19;;;;;;;12.77;6.60;;;;;;;20.72;54.56;101564.72;5017504;28;20045;-46
2022/10/16 10:48:06;;;;;;;13.85;6.32;;;;;;;20.67;55.04;101568.72;5021672;28;20061;-44
2022/10/16 10:51:10;;;;;;;11.73;5.95;;;;;;;20.65;54.63;101561.78;5009571;28;20049;-45
2022/10/16 10:53:42;;;;;;;15.90;6.93;;;;;;;20.66;54.95;101575.13;4998105;28;20053;-45
2022/10/16 10:56:34;;;;;;;13.27;6.47;;;;;;;20.64;54.61;101577.09;5013721;28;20379;-44
2022/10/16 10:59:41;;;;;;;12.15;5.90;;;;;;;20.63;55.22;101580.81;5013569;28;20125;-46
2022/10/16 11:02:20;;;;;;;11.32;6.22;;;;;;;20.64;54.82;101581.66;5016377;28;20053;-45
2022/10/16 11:05:07;;;;;;;13.35;6.82;;;;;;;20.61;54.55;101582.78;5011892;28;20056;-44
2022/10/16 11:07:41;;;;;;;15.38;7.85;;;;;;;20.61;54.54;101596.25;5007541;28;20053;-43
2022/10/16 11:10:15;;;;;;;14.60;8.32;;;;;;;20.61;54.97;101590.03;4994872;28;20065;-47
2022/10/16 11:12:52;;;;;;;14.48;7.93;;;;;;;20.60;54.67;101591.88;5013818;28;20060;-46
2022/10/16 11:15:23;;;;;;;17.05;8.13;;;;;;;20.61;54.84;101584.63;5013960;28;20440;-44
2022/10/16 11:18:14;;;;;;;14.40;7.35;;;;;;;20.60;54.81;101599.13;5015143;28;20499;-45
2022/10/16 11:20:48;;;;;;;14.40;7.30;;;;;;;20.60;55.45;101597.25;5008715;28;20672;-42
2022/10/16 11:23:29;;;;;;;15.88;8.02;;;;;;;20.59;54.96;101605.50;5009411;28;20157;-41
2022/10/16 11:26:06;;;;;;;15.55;7.40;;;;;;;20.60;55.43;101601.81;5014872;28;20049;-40
2022/10/16 11:28:38;;;;;;;16.40;8.50;;;;;;;20.61;55.44;101603.50;4979795;28;20064;-41
2022/10/16 11:31:23;;;;;;;13.80;8.10;;;;;;;20.61;54.84;101615.09;5024628;28;20053;-40
2022/10/16 11:34:21;;;;;;;12.60;7.22;;;;;;;20.64;54.57;101619.34;5013277;28;20068;-41
2022/10/16 11:36:56;;;;;;;12.15;7.28;;;;;;;20.66;55.21;101617.34;5014453;28;20053;-41
2022/10/16 11:39:30;;;;;;;12.93;7.15;;;;;;;20.69;54.62;101614.34;5015181;28;20424;-39
2022/10/16 11:42:11;;;;;;;13.50;7.05;;;;;;;20.70;54.73;101619.59;5014834;28;20053;-40
2022/10/16 11:44:50;;;;;;;15.35;6.80;;;;;;;20.71;54.79;101617.75;5013903;28;20469;-39
2022/10/16 11:47:34;;;;;;;14.18;6.90;;;;;;;20.73;54.37;101626.50;4982317;28;20065;-39
2022/10/16 11:50:42;;;;;;;12.55;7.30;;;;;;;20.72;54.95;101624.00;5020279;28;20480;-39
2022/10/16 11:53:22;;;;;;;13.50;6.70;;;;;;;20.72;54.64;101624.81;5012691;28;20057;-40
2022/10/16 11:55:48;;;;;;;16.83;6.90;;;;;;;20.73;54.37;101628.38;5014243;28;20076;-40
2022/10/16 11:58:34;;;;;;;15.10;7.38;;;;;;;20.73;54.69;101631.91;5011878;28;20439;-42
2022/10/16 12:01:19;;;;;;;14.27;6.95;;;;;;;20.76;54.87;101630.75;5012232;28;20678;-43
2022/10/16 12:03:58;;;;;;;9.27;5.63;;;;;;;20.78;54.85;101636.84;5014622;28;20049;-45
2022/10/16 12:06:37;;;;;;;11.70;5.75;;;;;;;20.79;54.77;101635.84;5012335;28;20467;-40
2022/10/16 12:09:04;;;;;;;11.85;5.75;;;;;;;20.80;54.48;101632.16;4973446;28;20068;-41
2022/10/16 12:11:37;;;;;;;13.07;6.35;;;;;;;20.81;54.24;101631.16;5012488;28;20099;-41
2022/10/16 12:14:19;;;;;;;11.15;6.07;;;;;;;20.82;54.19;101644.44;5012071;28;20050;-41
2022/10/16 12:16:57;;;;;;;11.65;5.57;;;;;;;20.83;54.38;101648.88;5011174;28;20131;-43
2022/10/16 12:19:26;;;;;;;12.85;5.72;;;;;;;20.84;54.47;101647.00;5010732;28;20939;-42
2022/10/16 12:21:56;;;;;;;10.38;5.68;;;;;;;20.87;54.44;101646.72;5008027;28;20053;-41
2022/10/16 12:24:26;;;;;;;12.57;5.88;;;;;;;20.89;54.20;101655.47;5013221;28;20368;-40
2022/10/16 12:26:53;;;;;;;16.48;5.85;;;;;;;20.90;54.35;101649.97;5008995;28;20154;-41
2022/10/16 12:29:38;;;;;;;10.73;6.10;;;;;;;20.91;53.73;101648.94;4972456;28;20527;-42
2022/10/16 12:32:39;;;;;;;12.02;5.65;;;;;;;20.90;54.27;101652.66;5013146;28;20068;-41
2022/10/16 12:35:35;;;;;;;9.60;6.10;;;;;;;20.88;54.33;101653.78;5012579;28;20077;-41
2022/10/16 12:38:08;;;;;;;14.35;6.05;;;;;;;20.91;54.26;101650.81;5013172;28;20451;-41
2022/10/16 12:40:37;;;;;;;10.88;5.68;;;;;;;20.91;54.17;101651.66;5011962;28;20060;-42
2022/10/16 12:43:27;;;;;;;11.88;6.43;;;;;;;20.90;54.01;101647.25;5011402;28;20296;-41
2022/10/16 12:46:05;;;;;;;11.10;6.15;;;;;;;20.93;54.31;101641.53;5012998;28;20045;-41
2022/10/16 12:48:32;;;;;;;11.27;6.68;;;;;;;20.97;53.96;101652.03;4990545;28;20053;-42
2022/10/16 12:51:29;;;;;;;14.15;6.80;;;;;;;20.97;53.73;101658.25;5008912;28;20061;-41
2022/10/16 12:54:00;;;;;;;12.90;5.88;;;;;;;21.01;53.94;101658.81;5012320;28;20057;-42
2022/10/16 12:56:49;;;;;;;12.90;6.90;;;;;;;21.02;53.93;101645.16;5011975;28;20061;-42
2022/10/16 12:59:21;;;;;;;13.00;5.63;;;;;;;21.04;53.52;101648.56;5010010;28;20344;-42
2022/10/16 13:02:18;;;;;;;10.98;6.22;;;;;;;21.04;54.12;101658.50;5011115;28;20045;-42
2022/10/16 13:05:37;;;;;;;9.70;5.88;;;;;;;21.05;53.90;101662.88;5013565;28;20061;-41
2022/10/16 13:08:37;;;;;;;9.38;5.32;;;;;;;21.06;53.81;101660.03;5007449;28;20061;-43
2022/10/16 13:11:27;;;;;;;11.45;6.07;;;;;;;21.09;53.21;101662.41;5018035;28;20080;-43
2022/10/16 13:14:04;;;;;;;11.30;6.45;;;;;;;21.08;53.82;101658.03;5012816;28;20080;-42
2022/10/16 13:16:52;;;;;;;11.90;5.88;;;;;;;21.08;53.74;101666.13;5012290;28;20441;-43
2022/10/16 13:19:19;;;;;;;12.18;5.60;;;;;;;21.11;53.26;101671.22;5009535;28;20052;-43
2022/10/16 13:22:13;;;;;;;13.35;6.22;;;;;;;21.09;54.01;101675.06;5010118;28;20057;-44
2022/10/16 13:24:55;;;;;;;;;;;;;;;21.10;53.96;101682.97;5013500;28;20807;-44
2022/10/16 13:27:56;;;;;;;14.50;7.82;;;;;;;21.09;53.64;101673.19;5014647;28;19929;-46
2022/10/16 13:30:28;;;;;;;19.50;10.65;;;;;;;21.08;53.80;101676.91;5011581;28;20066;-43
2022/10/16 13:32:59;;;;;;;;;;;;;;;21.06;53.69;101686.13;5013717;28;20519;-43
2022/10/16 13:35:30;;;;;;;16.65;9.70;;;;;;;21.08;53.51;101693.06;5016005;28;20325;-43
2022/10/16 13:38:12;;;;;;;22.00;10.90;;;;;;;21.06;53.82;101695.06;5017006;28;20108;-44
2022/10/16 13:41:00;;;;;;;16.77;9.95;;;;;;;21.05;53.33;101701.47;5020691;28;20049;-44
2022/10/16 13:43:36;;;;;;;16.92;9.50;;;;;;;21.05;53.40;101690.69;5020384;28;20153;-43
2022/10/16 13:46:05;;;;;;;21.13;11.77;;;;;;;21.05;53.65;101704.16;4983396;28;20061;-43
2022/10/16 13:48:33;;;;;;;21.40;11.90;;;;;;;21.03;53.61;101695.41;5027371;28;20057;-43
2022/10/16 13:51:03;;;;;;;19.08;11.32;;;;;;;21.04;53.79;101690.84;5018408;28;20041;-43
2022/10/16 13:53:34;;;;;;;22.67;11.90;;;;;;;21.03;53.56;101697.25;5022805;28;20065;-43
2022/10/16 13:56:06;;;;;;;21.50;12.00;;;;;;;21.01;53.44;101700.06;5018662;28;20480;-44
2022/10/16 13:58:33;;;;;;;20.83;10.90;;;;;;;21.02;53.74;101704.47;5017356;28;20060;-43
2022/10/16 14:01:04;;;;;;;19.90;11.45;;;;;;;21.01;53.34;101705.47;5015161;28;20341;-43
2022/10/16 14:03:33;;;;;;;19.73;11.48;;;;;;;21.01;53.74;101702.75;5014913;28;20490;-43
2022/10/16 14:06:02;;;;;;;16.52;9.95;;;;;;;21.00;53.64;101705.63;5013935;28;20049;-43
2022/10/16 14:08:30;;;;;;;18.95;11.10;;;;;;;21.01;53.82;101701.94;5015275;28;20329;-44
2022/10/16 14:10:59;;;;;;;20.83;11.30;;;;;;;21.00;53.29;101703.78;5018395;28;20053;-43
2022/10/16 14:13:31;;;;;;;21.35;10.85;;;;;;;20.99;53.49;101707.47;5015448;28;20057;-44
2022/10/16 14:16:02;;;;;;;19.67;10.73;;;;;;;21.00;53.88;101703.78;5014488;28;20060;-43
2022/10/16 14:18:29;;;;;;;19.10;10.23;;;;;;;21.01;53.96;101697.38;5015869;28;20451;-43
2022/10/16 14:21:11;;;;;;;18.92;11.30;;;;;;;21.01;53.80;101694.69;5013983;28;20056;-43
2022/10/16 14:23:40;;;;;;;17.80;10.30;;;;;;;21.02;53.67;101684.75;5015483;28;20056;-43
2022/10/16 14:26:13;;;;;;;19.90;10.70;;;;;;;21.02;53.43;101690.97;5014831;28;20049;-46
2022/10/16 14:28:41;;;;;;;17.13;10.30;;;;;;;21.02;53.89;101693.66;4976876;28;20456;-43
2022/10/16 14:31:27;;;;;;;16.13;9.80;;;;;;;21.01;53.80;101700.06;5013201;28;20496;-46
2022/10/16 14:33:54;;;;;;;17.30;9.93;;;;;;;21.02;53.69;101688.28;5014789;28;20053;-44
2022/10/16 14:36:22;;;;;;;19.95;11.00;;;;;;;21.01;53.95;101694.69;5013182;28;20722;-45
2022/10/16 14:39:03;;;;;;;19.95;10.48;;;;;;;21.02;53.59;101699.06;5017066;28;20754;-44
2022/10/16 14:41:32;;;;;;;18.73;11.13;;;;;;;21.02;53.91;101700.91;5015034;28;20041;-44
2022/10/16 14:44:04;;;;;;;19.25;10.43;;;;;;;21.01;53.73;101702.75;5015933;28;20049;-44
2022/10/16 14:46:36;;;;;;;17.08;10.13;;;;;;;21.02;54.07;101703.59;4980895;28;20096;-43
2022/10/16 14:49:10;;;;;;;16.80;9.60;;;;;;;21.01;53.47;101705.47;5017622;28;20057;-43
2022/10/16 14:51:41;;;;;;;15.60;10.35;;;;;;;21.02;53.59;101715.22;5015117;28;20052;-43
2022/10/16 14:54:09;;;;;;;17.58;9.13;;;;;;;21.02;53.46;101704.47;5015974;28;20061;-43
2022/10/16 14:56:51;;;;;;;16.27;9.70;;;;;;;21.01;53.48;101697.38;5012560;28;20053;-43
2022/10/16 14:59:24;;;;;;;17.27;10.02;;;;;;;21.04;53.65;101699.78;5012654;28;20056;-44
2022/10/16 15:01:51;;;;;;;20.30;10.40;;;;;;;21.05;53.49;101703.31;5015288;28;20080;-41
2022/10/16 15:04:18;;;;;;;15.55;9.65;;;;;;;21.06;53.98;101705.00;5009490;28;20053;-41
2022/10/16 15:06:44;;;;;;;14.85;8.48;;;;;;;21.05;53.67;101708.72;5011370;28;20076;-41
2022/10/16 15:09:35;;;;;;;15.27;9.27;;;;;;;21.06;54.05;101705.00;4989751;28;20078;-42
2022/10/16 15:12:26;;;;;;;18.33;9.52;;;;;;;21.06;54.03;101700.44;5016152;28;20055;-42
2022/10/16 15:15:32;;;;;;;18.27;10.00;;;;;;;21.05;53.48;101709.53;4981642;28;20117;-42
2022/10/16 15:18:22;;;;;;;16.77;9.20;;;;;;;21.07;53.54;101707.56;4976369;28;20455;-39
2022/10/16 15:21:31;;;;;;;15.38;9.40;;;;;;;21.05;53.92;101709.53;4976051;28;20114;-41
2022/10/16 15:24:21;;;;;;;14.52;8.27;;;;;;;21.08;53.88;101708.41;4969723;28;20493;-39
2022/10/16 15:27:12;;;;;;;18.85;9.90;;;;;;;21.09;54.01;101704.69;4950841;28;20068;-40
2022/10/16 15:30:03;;;;;;;14.95;8.80;;;;;;;21.07;54.27;101696.78;5016708;28;20579;-40
2022/10/16 15:32:54;;;;;;;19.58;10.80;;;;;;;21.07;53.99;101690.53;5009941;28;20080;-39
2022/10/16 15:35:21;;;;;;;19.25;11.75;;;;;;;21.05;53.92;101693.38;5016940;28;20053;-39
2022/10/16 15:37:48;;;;;;;24.92;14.18;;;;;;;21.04;53.56;101699.78;5013163;28;20053;-39
2022/10/16 15:40:16;;;;;;;21.33;12.95;;;;;;;21.04;53.74;101693.53;5017067;28;20057;-40
2022/10/16 15:42:43;;;;;;;25.20;13.85;;;;;;;21.04;54.10;101690.84;5013303;28;20543;-39
2022/10/16 15:45:11;;;;;;;21.98;12.05;;;;;;;21.04;54.04;101690.84;5013674;28;20056;-39
2022/10/16 15:47:38;;;;;;;20.58;11.13;;;;;;;21.04;54.21;101696.22;5015875;28;20056;-39
2022/10/16 15:50:12;;;;;;;22.13;11.68;;;;;;;21.04;53.92;101691.69;4983730;28;20057;-39
2022/10/16 15:52:39;;;;;;;16.10;10.23;;;;;;;21.08;54.44;101692.22;5018820;28;20511;-39
2022/10/16 15:55:10;;;;;;;21.38;10.68;;;;;;;21.12;54.09;101688.22;5016096;28;20325;-40
2022/10/16 15:57:38;;;;;;;18.50;10.50;;;;;;;21.15;53.88;101694.16;5011560;28;20049;-39
2022/10/16 16:00:10;;;;;;;21.75;12.32;;;;;;;21.21;54.26;101692.69;5012796;28;20080;-39
2022/10/16 16:02:37;;;;;;;21.73;12.23;;;;;;;21.29;54.43;101705.41;5016276;28;20045;-39
2022/10/16 16:05:06;;;;;;;22.50;12.30;;;;;;;21.32;54.88;101711.38;5014679;28;20054;-39
2022/10/16 16:07:34;;;;;;;21.88;12.55;;;;;;;21.36;54.83;101709.22;5011605;28;20650;-39
2022/10/16 16:10:01;;;;;;;21.10;13.02;;;;;;;21.39;54.89;101703.53;4972453;28;20053;-39
2022/10/16 16:12:28;;;;;;;21.77;12.40;;;;;;;21.42;54.67;101705.88;5013520;28;20415;-39
2022/10/16 16:14:55;;;;;;;21.08;12.38;;;;;;;21.45;54.77;101700.19;5014174;28;20249;-39
2022/10/16 16:17:22;;;;;;;22.23;12.30;;;;;;;21.48;54.51;101696.34;5013389;28;20076;-39
2022/10/16 16:19:48;;;;;;;21.30;11.68;;;;;;;21.49;54.86;101696.19;5014943;28;20057;-39
2022/10/16 16:22:15;;;;;;;20.27;11.88;;;;;;;21.51;54.86;101696.88;5014724;28;20048;-39
2022/10/16 16:24:43;;;;;;;23.05;12.60;;;;;;;21.52;54.29;101690.47;5014753;28;20141;-39
2022/10/16 16:27:10;;;;;;;18.58;11.07;;;;;;;21.53;54.47;101688.63;4986423;28;20302;-39
2022/10/16 16:29:36;;;;;;;20.33;11.23;;;;;;;21.51;54.57;101691.50;5027937;28;20057;-39
2022/10/16 16:32:03;;;;;;;20.42;11.40;;;;;;;21.51;54.38;101694.19;5014279;28;20542;-39
2022/10/16 16:34:29;;;;;;;21.55;11.77;;;;;;;21.49;54.30;101698.88;5014870;28;20053;-39
2022/10/16 16:36:56;;;;;;;18.52;11.05;;;;;;;21.48;54.47;101705.28;5011704;28;20064;-39
2022/10/16 16:39:23;;;;;;;17.70;10.73;;;;;;;21.47;54.38;101708.13;5015705;28;20053;-40
2022/10/16 16:41:50;;;;;;;16.85;10.35;;;;;;;21.44;54.57;101712.84;5012120;28;20444;-39
2022/10/16 16:44:17;;;;;;;18.42;10.98;;;;;;;21.43;54.30;101727.34;5019079;28;20057;-39
2022/10/16 16:46:44;;;;;;;19.88;11.30;;;;;;;21.41;54.46;101726.63;4986971;28;20547;-39
2022/10/16 16:49:12;;;;;;;17.60;10.85;;;;;;;21.40;54.46;101733.03;5018654;28;20056;-39
2022/10/16 16:51:40;;;;;;;19.02;10.80;;;;;;;21.39;54.63;101728.63;5014392;28;20057;-39
2022/10/16 16:54:07;;;;;;;16.25;9.38;;;;;;;21.38;54.72;101735.00;5013262;28;20072;-39
2022/10/16 16:56:34;;;;;;;21.42;11.10;;;;;;;21.38;54.79;101736.88;5013206;28;20053;-39
2022/10/16 16:59:01;;;;;;;23.45;14.10;;;;;;;21.37;55.05;101735.19;5012160;28;20053;-39
2022/10/16 17:01:28;;;;;;;26.88;14.40;;;;;;;21.37;54.71;101740.56;5008888;28;20240;-39
2022/10/16 17:03:56;;;;;;;21.38;12.02;;;;;;;21.35;54.21;101735.34;5012111;28;20666;-39
2022/10/16 17:06:26;;;;;;;17.58;10.80;;;;;;;21.35;54.52;101731.81;5012792;28;20283;-39
2022/10/16 17:08:53;;;;;;;20.70;11.02;;;;;;;21.34;54.36;101716.59;4977212;28;20756;-40
2022/10/16 17:11:22;;;;;;;17.65;9.93;;;;;;;21.34;54.47;101724.69;5029618;28;21793;-39
2022/10/16 17:13:50;;;;;;;18.90;10.77;;;;;;;21.37;54.13;101716.31;5014941;28;20056;-39
2022/10/16 17:16:29;;;;;;;19.08;10.48;;;;;;;21.39;54.43;101719.72;5014921;28;20060;-39
2022/10/16 17:18:58;;;;;;;16.50;10.70;;;;;;;21.43;54.38;101723.78;5017708;28;20049;-41
2022/10/16 17:21:26;;;;;;;17.05;10.10;;;;;;;21.47;54.28;101725.19;5017862;28;20049;-39
2022/10/16 17:23:53;;;;;;;18.10;10.18;;;;;;;21.52;54.34;101727.41;5018500;28;21130;-39
2022/10/16 17:26:19;;;;;;;20.13;9.73;;;;;;;21.57;54.15;101742.09;4984846;28;20348;-39
2022/10/16 17:28:51;;;;;;;19.67;10.55;;;;;;;21.63;54.02;101751.44;5028491;28;20442;-39
2022/10/16 17:31:21;;;;;;;16.15;9.88;;;;;;;21.67;53.98;101753.69;5015889;28;20124;-39
2022/10/16 17:33:47;;;;;;;20.08;9.93;;;;;;;21.71;53.69;101745.25;5014236;28;20057;-39
2022/10/16 17:36:14;;;;;;;16.52;10.07;;;;;;;21.76;54.15;101753.75;5018133;28;20065;-39
2022/10/16 17:38:41;;;;;;;17.83;9.55;;;;;;;21.79;53.73;101748.88;5017985;28;20064;-39
2022/10/16 17:41:20;;;;;;;16.65;9.65;;;;;;;21.83;53.76;101750.25;5022062;28;20053;-39
2022/10/16 17:43:47;;;;;;;19.17;10.00;;;;;;;21.88;53.69;101756.03;5022122;28;20064;-39
2022/10/16 17:46:16;;;;;;;15.63;9.27;;;;;;;21.91;53.91;101757.59;4985757;28;25450;-39
2022/10/16 17:48:45;;;;;;;15.50;9.38;;;;;;;21.94;53.59;101754.53;5031314;28;20077;-39
2022/10/16 17:51:14;;;;;;;15.90;8.75;;;;;;;21.97;53.76;101745.28;5021108;28;20052;-39
2022/10/16 17:53:42;;;;;;;15.65;8.55;;;;;;;22.00;53.89;101753.09;5021469;28;20433;-39
2022/10/16 17:56:11;;;;;;;14.05;8.57;;;;;;;22.01;53.84;101752.91;5021736;28;20060;-39
2022/10/16 17:58:38;;;;;;;15.15;8.52;;;;;;;22.04;53.62;101751.75;5020576;28;20387;-39
2022/10/16 18:01:13;;;;;;;16.50;8.70;;;;;;;22.04;53.70;101759.88;5018824;28;20049;-39
2022/10/16 18:03:40;;;;;;;16.13;8.90;;;;;;;22.03;53.68;101761.72;5022082;28;20131;-39
2022/10/16 18:06:07;;;;;;;19.08;11.65;;;;;;;22.00;53.92;101751.22;4991441;28;20428;-39
2022/10/16 18:08:37;;;;;;;23.33;12.23;;;;;;;21.97;53.65;101759.63;5017830;28;20053;-39
2022/10/16 18:11:04;;;;;;;27.15;15.93;;;;;;;21.95;53.50;101764.34;5018417;28;20046;-39
2022/10/16 18:13:31;;;;;;;24.80;15.30;;;;;;;21.92;53.62;101764.66;5019671;28;20045;-39
2022/10/16 18:16:02;;;;;;;27.27;15.93;;;;;;;21.88;53.96;101758.72;5020401;28;20069;-39
2022/10/16 18:18:29;;;;;;;28.98;17.20;;;;;;;21.85;53.80;101766.28;5022485;28;20049;-38
2022/10/16 18:20:59;;;;;;;36.63;19.33;;;;;;;21.85;53.82;101785.19;5023925;28;20455;-41
2022/10/16 18:23:27;;;;;;;37.15;21.35;;;;;;;21.85;53.73;101783.31;5026478;28;21273;-41
2022/10/16 18:25:54;;;;;;;41.72;23.10;;;;;;;21.85;53.83;101793.28;5023651;28;20057;-41
2022/10/16 18:28:22;;;;;;;40.20;23.15;;;;;;;21.84;53.58;101795.13;5027349;28;20054;-41
2022/10/16 18:30:57;;;;;;;41.60;23.13;;;;;;;21.84;54.04;101807.78;5023590;28;20045;-41
2022/10/16 18:33:24;;;;;;;38.10;22.67;;;;;;;21.84;53.65;101805.09;5029634;28;20057;-41
2022/10/16 18:35:52;;;;;;;39.08;22.88;;;;;;;21.83;53.75;101808.75;5025914;28;20045;-40
2022/10/16 18:38:19;;;;;;;35.90;21.67;;;;;;;21.82;53.60;101804.38;5025714;28;20050;-41
2022/10/16 18:40:46;;;;;;;40.17;21.80;;;;;;;21.82;53.55;101807.06;5025113;28;20045;-41
2022/10/16 18:43:12;;;;;;;34.97;21.40;;;;;;;21.80;53.49;101806.41;5031304;28;20061;-41
2022/10/16 18:45:39;;;;;;;35.60;21.10;;;;;;;21.79;53.48;101810.06;5027184;28;20057;-41
2022/10/16 18:48:05;;;;;;;35.00;20.90;;;;;;;21.77;53.46;101812.09;5024731;28;20053;-41
2022/10/16 18:50:32;;;;;;;37.78;22.27;;;;;;;21.76;53.58;101805.00;5025927;28;20053;-41
2022/10/16 18:52:58;;;;;;;33.83;20.70;;;;;;;21.76;53.71;101794.22;5024394;28;20045;-41
2022/10/16 18:55:28;;;;;;;34.92;21.27;;;;;;;21.76;53.57;101802.31;5022590;28;20451;-41
2022/10/16 18:57:56;;;;;;;32.72;19.95;;;;;;;21.73;53.78;101799.91;5025969;28;20045;-41
2022/10/16 19:00:23;;;;;;;34.67;20.67;;;;;;;21.73;53.49;101802.63;5025202;28;20045;-41
2022/10/16 19:02:49;;;;;;;41.67;21.02;;;;;;;21.72;53.67;101803.63;5023127;28;20068;-41
2022/10/16 19:05:16;;;;;;;32.33;19.50;;;;;;;21.69;53.44;101802.06;5024111;28;20049;-41
2022/10/16 19:07:44;;;;;;;36.08;21.08;;;;;;;21.68;53.45;101801.22;5025910;28;20042;-41
2022/10/16 19:10:11;;;;;;;31.77;19.15;;;;;;;21.68;53.71;101797.69;5021482;28;20053;-41
2022/10/16 19:12:39;;;;;;;30.73;19.08;;;;;;;21.66;53.34;101799.69;5023484;28;20042;-41
2022/10/16 19:15:06;;;;;;;28.42;18.10;;;;;;;21.64;53.68;101791.75;5023632;28;20050;-41
2022/10/16 19:17:35;;;;;;;31.42;18.42;;;;;;;21.63;53.95;101792.75;5024646;28;20064;-41
2022/10/16 19:20:03;;;;;;;29.17;17.90;;;;;;;21.61;53.64;101783.97;5025968;28;20049;-41
2022/10/16 19:22:50;;;;;;;30.75;17.85;;;;;;;21.60;53.42;101798.47;5023209;28;20042;-41
2022/10/16 19:25:18;;;;;;;28.52;17.15;;;;;;;21.59;53.84;101804.88;5028121;28;20045;-41
2022/10/16 19:27:44;;;;;;;28.58;16.83;;;;;;;21.59;53.40;101809.41;5028375;28;20065;-41
2022/10/16 19:30:11;;;;;;;29.45;16.65;;;;;;;;;;5021864;28;20041;-41
2022/10/16 19:32:38;;;;;;;28.65;17.15;;;;;;;21.55;53.61;101814.25;5024343;28;20052;-41
2022/10/16 19:35:06;;;;;;;27.88;17.23;;;;;;;21.52;53.90;101809.16;5024743;28;20049;-41
2022/10/16 19:37:32;;;;;;;27.55;16.15;;;;;;;21.51;53.66;101806.59;5022454;28;20053;-41
2022/10/16 19:39:59;;;;;;;26.98;16.45;;;;;;;21.49;53.75;101812.16;5022123;28;20112;-41
2022/10/16 19:42:25;;;;;;;27.13;16.05;;;;;;;21.47;53.92;101811.50;5020997;28;20365;-41
2022/10/16 19:44:53;;;;;;;30.48;16.83;;;;;;;21.46;54.14;101815.16;5023146;28;20136;-41
2022/10/16 19:47:19;;;;;;;26.85;14.98;;;;;;;21.45;53.80;101808.06;5022957;28;20053;-41
2022/10/16 19:49:49;;;;;;;26.00;15.68;;;;;;;21.43;53.51;101794.75;5024012;28;20137;-41
2022/10/16 19:52:20;;;;;;;24.88;15.30;;;;;;;21.41;53.72;101791.34;5018576;28;20050;-41
2022/10/16 19:54:47;;;;;;;24.70;15.27;;;;;;;21.40;53.97;101780.72;5026525;28;20341;-41
2022/10/16 19:57:14;;;;;;;26.10;16.38;;;;;;;21.39;53.80;101781.72;5024318;28;20054;-41
2022/10/16 19:59:42;;;;;;;23.15;14.40;;;;;;;21.38;53.95;101774.63;5025734;28;20056;-41
2022/10/16 20:02:11;;;;;;;26.05;14.30;;;;;;;21.35;53.81;101773.09;5027486;28;20049;-41
2022/10/16 20:04:37;;;;;;;26.50;14.23;;;;;;;21.33;53.79;101774.25;5023541;28;20329;-41
2022/10/16 20:07:04;;;;;;;23.38;14.45;;;;;;;21.33;53.55;101766.16;5022568;28;20061;-41
2022/10/16 20:09:33;;;;;;;23.23;14.18;;;;;;;21.32;53.94;101764.44;5020669;28;20045;-41
2022/10/16 20:12:00;;;;;;;23.92;14.05;;;;;;;21.32;53.80;101764.44;5022800;28;20060;-41
2022/10/16 20:14:27;;;;;;;24.15;14.27;;;;;;;21.30;53.90;101761.03;5023275;28;20053;-41
2022/10/16 20:16:54;;;;;;;25.35;14.85;;;;;;;21.28;53.76;101758.50;5021146;28;20060;-41
2022/10/16 20:19:21;;;;;;;23.63;14.55;;;;;;;21.25;53.83;101768.72;5020668;28;20471;-41
2022/10/16 20:21:48;;;;;;;24.75;15.13;;;;;;;21.23;54.22;101768.91;5025134;28;20053;-41
2022/10/16 20:24:14;;;;;;;24.27;13.95;;;;;;;21.22;53.73;101769.88;5017636;28;20049;-41
2022/10/16 20:26:41;;;;;;;22.65;14.25;;;;;;;21.23;54.19;101768.03;5016859;28;20049;-41
2022/10/16 20:29:07;;;;;;;26.23;15.35;;;;;;;21.19;53.76;101768.34;5021413;28;20288;-41
2022/10/16 20:31:35;;;;;;;22.20;13.80;;;;;;;21.18;53.68;101761.22;5018648;28;20429;-41
2022/10/16 20:34:08;;;;;;;21.30;13.15;;;;;;;21.16;54.28;101768.66;5022441;28;20062;-41
2022/10/16 20:36:36;;;;;;;23.40;14.25;;;;;;;21.16;54.01;101774.03;5023287;28;20551;-41